createdAt,value
2023-03-13T00:02:03.368Z,11.50
2023-03-13T00:04:31.713Z,12.80
2023-03-13T00:07:00.287Z,12.47
2023-03-13T00:09:28.506Z,10.90
2023-03-13T00:11:56.738Z,11.87
2023-03-13T00:14:25.001Z,12.23
2023-03-13T00:16:53.345Z,11.80
2023-03-13T00:19:22.976Z,11.37
2023-03-13T00:21:51.206Z,11.60
2023-03-13T00:24:19.498Z,10.73
2023-03-13T00:26:47.723Z,11.37
2023-03-13T00:29:15.950Z,11.67
2023-03-13T00:31:44.223Z,11.30
2023-03-13T00:34:12.495Z,10.60
2023-03-13T00:36:42.063Z,11.00
2023-03-13T00:39:10.777Z,12.70
2023-03-13T00:41:39.515Z,12.13
2023-03-13T00:44:08.272Z,11.00
2023-03-13T00:46:37.106Z,10.20
2023-03-13T00:49:05.726Z,9.13
2023-03-13T00:51:34.222Z,8.70
2023-03-13T00:54:04.911Z,9.00
2023-03-13T00:56:33.217Z,8.50
2023-03-13T00:59:02.323Z,9.43
2023-03-13T01:01:33.933Z,8.67
2023-03-13T01:04:06.460Z,9.40
2023-03-13T01:06:36.898Z,9.20
2023-03-13T01:09:08.345Z,8.80
2023-03-13T01:11:39.071Z,9.40
2023-03-13T01:14:12.747Z,9.03
2023-03-13T01:16:41.634Z,7.60
2023-03-13T01:19:13.440Z,7.10
2023-03-13T01:21:42.966Z,6.00
2023-03-13T01:24:12.674Z,5.40
2023-03-13T01:26:40.936Z,4.77
2023-03-13T01:29:09.264Z,3.60
2023-03-13T01:31:38.210Z,2.63
2023-03-13T01:34:07.781Z,2.20
2023-03-13T01:36:38.384Z,1.80
2023-03-13T01:39:07.332Z,1.90
2023-03-13T01:41:38.297Z,1.77
2023-03-13T01:44:06.556Z,1.70
2023-03-13T01:46:34.893Z,1.63
2023-03-13T01:49:07.738Z,1.50
2023-03-13T01:51:40.178Z,1.60
2023-03-13T01:54:12.547Z,1.53
2023-03-13T01:56:47.463Z,1.50
2023-03-13T01:59:19.764Z,1.93
2023-03-13T02:01:50.831Z,1.80
2023-03-13T02:04:23.330Z,1.90
2023-03-13T02:06:56.028Z,1.90
2023-03-13T02:09:28.274Z,2.23
2023-03-13T02:12:04.974Z,1.80
2023-03-13T02:14:37.803Z,1.77
2023-03-13T02:17:08.404Z,1.67
2023-03-13T02:19:43.123Z,1.57
2023-03-13T02:22:20.052Z,1.90
2023-03-13T02:24:58.171Z,1.70
2023-03-13T02:27:28.005Z,1.50
2023-03-13T02:29:56.579Z,1.70
2023-03-13T02:32:26.603Z,1.60
2023-03-13T02:35:01.387Z,2.00
2023-03-13T02:37:31.475Z,1.57
2023-03-13T02:40:04.874Z,1.70
2023-03-13T02:42:34.525Z,1.80
2023-03-13T02:45:02.743Z,1.57
2023-03-13T02:47:30.976Z,1.50
2023-03-13T02:49:59.218Z,1.53
2023-03-13T02:52:30.991Z,1.80
2023-03-13T02:55:03.115Z,2.07
2023-03-13T02:57:35.362Z,1.50
2023-03-13T03:00:12.536Z,1.57
2023-03-13T03:02:41.216Z,1.70
2023-03-13T03:05:10.665Z,1.40
2023-03-13T03:07:38.970Z,1.23
2023-03-13T03:10:09.013Z,1.60
2023-03-13T03:12:37.300Z,1.80
2023-03-13T03:15:08.601Z,1.73
2023-03-13T03:17:37.023Z,1.80
2023-03-13T03:20:07.909Z,1.80
2023-03-13T03:22:38.527Z,1.80
2023-03-13T03:25:07.946Z,1.90
2023-03-13T03:27:37.386Z,1.80
2023-03-13T03:30:08.868Z,1.63
2023-03-13T03:32:37.206Z,1.80
2023-03-13T03:35:06.991Z,1.80
2023-03-13T03:37:35.262Z,1.60
2023-03-13T03:40:05.653Z,1.73
2023-03-13T03:42:34.480Z,1.70
2023-03-13T03:45:02.706Z,1.93
2023-03-13T03:47:32.471Z,2.40
2023-03-13T03:50:00.679Z,1.90
2023-03-13T03:52:28.877Z,1.67
2023-03-13T03:54:57.150Z,2.00
2023-03-13T03:57:26.099Z,1.57
2023-03-13T03:59:54.358Z,1.83
2023-03-13T04:02:22.585Z,1.77
2023-03-13T04:04:52.197Z,1.73
2023-03-13T04:07:20.547Z,1.63
2023-03-13T04:09:48.800Z,1.60
2023-03-13T04:12:17.122Z,1.90
2023-03-13T04:14:45.407Z,1.60
2023-03-13T04:17:13.680Z,1.90
2023-03-13T04:19:41.958Z,2.13
2023-03-13T04:22:11.659Z,2.00
2023-03-13T04:24:40.001Z,2.00
2023-03-13T04:27:08.179Z,2.27
2023-03-13T04:29:36.472Z,2.03
2023-03-13T04:32:04.983Z,2.40
2023-03-13T04:34:33.724Z,2.43
2023-03-13T04:37:02.004Z,2.63
2023-03-13T04:39:33.191Z,2.13
2023-03-13T04:42:01.522Z,2.90
2023-03-13T04:44:29.912Z,2.97
2023-03-13T04:46:58.156Z,2.97
2023-03-13T04:49:26.601Z,2.73
2023-03-13T04:51:55.101Z,3.07
2023-03-13T04:54:23.819Z,3.33
2023-03-13T04:56:53.525Z,3.10
2023-03-13T04:59:21.831Z,3.33
2023-03-13T05:01:50.143Z,3.20
2023-03-13T05:04:18.767Z,3.20
2023-03-13T05:06:46.990Z,2.77
2023-03-13T05:09:15.214Z,3.33
2023-03-13T05:11:43.486Z,3.47
2023-03-13T05:14:13.082Z,3.20
2023-03-13T05:16:41.315Z,3.07
2023-03-13T05:19:09.672Z,3.30
2023-03-13T05:21:38.273Z,3.13
2023-03-13T05:24:07.326Z,3.00
2023-03-13T05:26:35.676Z,3.60
2023-03-13T05:29:03.986Z,3.53
2023-03-13T05:31:33.766Z,3.40
2023-03-13T05:34:02.032Z,3.47
2023-03-13T05:36:30.254Z,3.80
2023-03-13T05:38:58.656Z,3.90
2023-03-13T05:41:26.980Z,3.40
2023-03-13T05:43:55.251Z,3.30
2023-03-13T05:46:23.579Z,3.33
2023-03-13T05:48:53.732Z,3.10
2023-03-13T05:51:22.000Z,3.90
2023-03-13T05:53:50.329Z,3.67
2023-03-13T05:56:18.579Z,3.40
2023-03-13T05:58:46.886Z,4.10
2023-03-13T06:01:16.136Z,4.07
2023-03-13T06:03:44.453Z,3.63
2023-03-13T06:06:14.175Z,3.83
2023-03-13T06:08:42.527Z,3.40
2023-03-13T06:11:10.817Z,3.60
2023-03-13T06:13:39.080Z,3.90
2023-03-13T06:16:08.621Z,3.83
2023-03-13T06:18:36.914Z,3.70
2023-03-13T06:21:05.642Z,3.93
2023-03-13T06:23:35.806Z,3.80
2023-03-13T06:26:04.342Z,4.20
2023-03-13T06:28:32.607Z,3.63
2023-03-13T06:31:03.866Z,3.77
2023-03-13T06:33:32.633Z,4.37
2023-03-13T06:36:03.037Z,4.00
2023-03-13T06:38:31.741Z,3.70
2023-03-13T06:41:01.401Z,3.93
2023-03-13T06:43:29.915Z,3.90
2023-03-13T06:45:58.243Z,3.87
2023-03-13T06:48:26.530Z,3.90
2023-03-13T06:50:56.605Z,3.77
2023-03-13T06:53:24.922Z,4.10
2023-03-13T06:55:53.417Z,4.10
2023-03-13T06:58:32.171Z,3.73
2023-03-13T07:01:01.059Z,3.93
2023-03-13T07:03:29.562Z,4.23
2023-03-13T07:05:58.450Z,3.67
2023-03-13T07:08:27.400Z,4.20
2023-03-13T07:11:00.040Z,3.03
2023-03-13T07:13:30.425Z,3.83
2023-03-13T07:16:01.673Z,3.70
2023-03-13T07:18:29.987Z,4.00
2023-03-13T07:21:00.499Z,3.70
2023-03-13T07:23:30.650Z,3.63
2023-03-13T07:26:01.839Z,3.60
2023-03-13T07:28:32.338Z,3.90
2023-03-13T07:31:08.844Z,3.80
2023-03-13T07:33:37.268Z,3.73
2023-03-13T07:36:06.829Z,4.37
2023-03-13T07:38:35.762Z,3.67
2023-03-13T07:41:04.905Z,3.50
2023-03-13T07:43:34.668Z,3.67
2023-03-13T07:46:06.136Z,3.60
2023-03-13T07:48:36.484Z,3.90
2023-03-13T07:51:06.234Z,3.43
2023-03-13T07:53:35.319Z,3.10
2023-03-13T07:56:06.656Z,3.00
2023-03-13T07:58:38.988Z,3.23
2023-03-13T08:01:12.358Z,3.30
2023-03-13T08:03:41.062Z,2.70
2023-03-13T08:06:11.793Z,2.90
2023-03-13T08:08:40.630Z,2.97
2023-03-13T08:11:11.793Z,2.87
2023-03-13T08:13:42.714Z,2.97
2023-03-13T08:16:13.620Z,2.77
2023-03-13T08:18:44.278Z,2.60
2023-03-13T08:21:15.266Z,2.70
2023-03-13T08:23:44.198Z,2.70
2023-03-13T08:26:15.352Z,2.40
2023-03-13T08:28:46.677Z,2.83
2023-03-13T08:31:17.481Z,2.50
2023-03-13T08:33:47.756Z,2.77
2023-03-13T08:36:19.034Z,2.37
2023-03-13T08:38:48.926Z,2.20
2023-03-13T08:41:19.522Z,2.30
2023-03-13T08:43:49.706Z,2.30
2023-03-13T08:46:19.717Z,2.23
2023-03-13T08:48:51.731Z,2.17
2023-03-13T08:51:23.144Z,2.20
2023-03-13T08:53:52.933Z,2.10
2023-03-13T08:56:24.134Z,2.20
2023-03-13T08:58:55.437Z,2.53
2023-03-13T09:01:26.034Z,2.00
2023-03-13T09:03:55.134Z,2.30
2023-03-13T09:06:23.429Z,2.40
2023-03-13T09:08:51.735Z,2.47
2023-03-13T09:11:22.786Z,1.90
2023-03-13T09:13:53.170Z,2.37
2023-03-13T09:16:23.387Z,2.17
2023-03-13T09:18:53.501Z,2.10
2023-03-13T09:21:24.915Z,2.40
2023-03-13T09:23:53.729Z,2.60
2023-03-13T09:26:23.598Z,2.70
2023-03-13T09:28:53.850Z,2.50
2023-03-13T09:31:25.390Z,2.10
2023-03-13T09:33:54.406Z,3.00
2023-03-13T09:36:24.742Z,2.50
2023-03-13T09:38:54.036Z,2.50
2023-03-13T09:41:27.937Z,2.40
2023-03-13T09:44:06.469Z,2.50
2023-03-13T09:46:40.763Z,2.20
2023-03-13T09:49:18.483Z,2.20
2023-03-13T09:51:52.465Z,1.97
2023-03-13T09:54:28.971Z,1.60
2023-03-13T09:57:02.078Z,2.17
2023-03-13T09:59:50.248Z,1.90
2023-03-13T10:02:32.582Z,1.90
2023-03-13T10:05:15.966Z,1.90
2023-03-13T10:07:44.401Z,2.10
2023-03-13T10:10:18.039Z,1.90
2023-03-13T10:12:48.336Z,1.43
2023-03-13T10:15:33.694Z,1.90
2023-03-13T10:18:13.049Z,2.20
2023-03-13T10:20:42.428Z,1.90
2023-03-13T10:23:18.074Z,1.47
2023-03-13T10:25:46.396Z,1.70
2023-03-13T10:28:16.719Z,1.40
2023-03-13T10:30:52.248Z,1.23
2023-03-13T10:33:25.483Z,1.30
2023-03-13T10:36:10.118Z,1.33
2023-03-13T10:38:52.545Z,1.40
2023-03-13T10:41:29.038Z,1.10
2023-03-13T10:44:02.002Z,1.20
2023-03-13T10:46:34.075Z,1.30
2023-03-13T10:49:05.214Z,1.20
2023-03-13T10:51:39.273Z,1.50
2023-03-13T10:54:22.601Z,1.30
2023-03-13T10:56:51.447Z,1.37
2023-03-13T10:59:26.030Z,1.30
2023-03-13T11:02:02.165Z,1.20
2023-03-13T11:04:34.165Z,1.30
2023-03-13T11:07:05.569Z,1.27
2023-03-13T11:09:34.148Z,0.90
2023-03-13T11:12:06.881Z,1.00
2023-03-13T11:14:36.056Z,1.17
2023-03-13T11:17:23.894Z,1.13
2023-03-13T11:20:03.617Z,1.10
2023-03-13T11:22:46.846Z,1.40
2023-03-13T11:25:24.681Z,1.30
2023-03-13T11:28:11.794Z,1.23
2023-03-13T11:30:59.698Z,1.17
2023-03-13T11:33:43.043Z,1.30
2023-03-13T11:36:21.835Z,1.30
2023-03-13T11:38:56.760Z,1.27
2023-03-13T11:41:46.957Z,1.43
2023-03-13T11:44:31.903Z,1.30
2023-03-13T11:47:27.240Z,1.57
2023-03-13T11:50:17.556Z,1.70
2023-03-13T11:53:05.750Z,1.37
2023-03-13T11:55:47.518Z,1.30
2023-03-13T11:58:36.886Z,1.10
2023-03-13T12:01:10.221Z,1.20
2023-03-13T12:03:46.040Z,1.10
2023-03-13T12:06:28.682Z,1.20
2023-03-13T12:09:05.081Z,1.20
2023-03-13T12:11:38.240Z,1.10
2023-03-13T12:14:13.302Z,1.30
2023-03-13T12:16:46.601Z,0.97
2023-03-13T12:19:19.205Z,1.00
2023-03-13T12:21:53.344Z,1.13
2023-03-13T12:24:29.064Z,1.17
2023-03-13T12:27:02.613Z,1.00
2023-03-13T12:29:47.662Z,1.47
2023-03-13T12:32:21.321Z,0.90
2023-03-13T12:35:01.038Z,1.10
2023-03-13T12:37:40.214Z,0.97
2023-03-13T12:40:19.370Z,1.40
2023-03-13T12:42:56.714Z,1.10
2023-03-13T12:45:27.166Z,1.40
2023-03-13T12:48:29.541Z,1.10
2023-03-13T12:51:18.308Z,1.10
2023-03-13T12:54:14.661Z,0.90
2023-03-13T12:57:07.565Z,0.90
2023-03-13T12:59:38.813Z,1.30
2023-03-13T13:02:17.396Z,1.13
2023-03-13T13:04:48.512Z,1.83
2023-03-13T13:07:26.749Z,2.00
2023-03-13T13:10:17.877Z,1.63
2023-03-13T13:12:48.427Z,4.47
2023-03-13T13:15:21.986Z,3.90
2023-03-13T13:18:01.805Z,3.67
2023-03-13T13:20:46.214Z,1.73
2023-03-13T13:23:36.849Z,1.07
2023-03-13T13:26:51.952Z,0.90
2023-03-13T13:30:00.160Z,1.10
2023-03-13T13:32:44.827Z,0.90
2023-03-13T13:35:31.999Z,0.80
2023-03-13T13:38:34.419Z,0.87
2023-03-13T13:41:06.918Z,1.20
2023-03-13T13:43:37.731Z,1.50
2023-03-13T13:46:29.359Z,1.20
2023-03-13T13:49:18.243Z,0.87
2023-03-13T13:52:32.523Z,1.10
2023-03-13T13:55:00.955Z,0.80
2023-03-13T13:57:34.022Z,1.10
2023-03-13T14:00:19.718Z,1.10
2023-03-13T14:02:52.659Z,1.03
2023-03-13T14:05:26.817Z,0.70
2023-03-13T14:08:02.054Z,0.80
2023-03-13T14:10:39.396Z,0.80
2023-03-13T14:13:16.817Z,0.70
2023-03-13T14:15:48.607Z,1.20
2023-03-13T14:18:23.761Z,0.90
2023-03-13T14:21:02.863Z,1.00
2023-03-13T14:23:42.255Z,0.80
2023-03-13T14:26:17.983Z,1.10
2023-03-13T14:28:49.340Z,0.90
2023-03-13T14:31:29.727Z,1.10
2023-03-13T14:33:59.507Z,1.20
2023-03-13T14:36:28.467Z,2.17
2023-03-13T14:38:59.736Z,1.60
2023-03-13T14:41:37.682Z,1.57
2023-03-13T14:44:08.408Z,1.80
2023-03-13T14:46:42.021Z,1.70
2023-03-13T14:49:18.323Z,2.30
2023-03-13T14:51:46.954Z,3.03
2023-03-13T14:54:29.244Z,2.23
2023-03-13T14:57:16.940Z,2.73
2023-03-13T14:59:45.773Z,2.50
2023-03-13T15:02:24.229Z,2.27
2023-03-13T15:04:56.192Z,2.97
2023-03-13T15:07:26.218Z,2.90
2023-03-13T15:09:54.789Z,2.27
2023-03-13T15:12:24.790Z,2.70
2023-03-13T15:14:54.280Z,3.40
2023-03-13T15:17:26.175Z,3.40
2023-03-13T15:19:56.407Z,2.60
2023-03-13T15:22:31.009Z,2.63
2023-03-13T15:25:08.217Z,2.40
2023-03-13T15:27:37.081Z,3.03
2023-03-13T15:30:07.026Z,2.20
2023-03-13T15:32:39.969Z,2.37
2023-03-13T15:35:28.678Z,2.70
2023-03-13T15:37:57.880Z,2.40
2023-03-13T15:40:27.427Z,2.83
2023-03-13T15:42:56.969Z,2.97
2023-03-13T15:45:25.462Z,3.07
2023-03-13T15:47:55.568Z,3.43
2023-03-13T15:50:29.710Z,2.33
2023-03-13T15:52:58.905Z,1.63
2023-03-13T15:55:28.947Z,1.60
2023-03-13T15:57:57.408Z,2.27
2023-03-13T16:00:28.098Z,1.80
2023-03-13T16:02:57.775Z,1.60
2023-03-13T16:05:26.225Z,1.90
2023-03-13T16:07:54.714Z,1.53
2023-03-13T16:10:27.388Z,1.67
2023-03-13T16:12:56.231Z,6.43
2023-03-13T16:15:24.868Z,3.53
2023-03-13T16:17:53.290Z,2.47
2023-03-13T16:20:26.531Z,1.90
2023-03-13T16:22:54.794Z,1.37
2023-03-13T16:25:23.669Z,1.90
2023-03-13T16:27:53.572Z,1.50
2023-03-13T16:30:26.780Z,2.17
2023-03-13T16:32:55.175Z,2.10
2023-03-13T16:35:26.719Z,2.10
2023-03-13T16:37:55.714Z,1.70
2023-03-13T16:40:27.480Z,1.90
2023-03-13T16:42:55.681Z,2.00
2023-03-13T16:45:24.329Z,1.77
2023-03-13T16:47:52.747Z,2.20
2023-03-13T16:50:28.024Z,2.30
2023-03-13T16:52:56.967Z,2.00
2023-03-13T16:55:28.433Z,1.70
2023-03-13T16:57:57.248Z,1.70
2023-03-13T17:00:28.330Z,1.80
2023-03-13T17:02:58.125Z,1.60
2023-03-13T17:05:28.590Z,1.80
2023-03-13T17:07:56.864Z,1.73
2023-03-13T17:10:28.627Z,2.00
2023-03-13T17:12:57.767Z,1.60
2023-03-13T17:15:27.205Z,3.63
2023-03-13T17:17:56.001Z,4.00
2023-03-13T17:20:28.782Z,3.00
2023-03-13T17:22:57.811Z,2.33
2023-03-13T17:25:26.762Z,4.00
2023-03-13T17:27:55.461Z,2.80
2023-03-13T17:30:27.680Z,4.10
2023-03-13T17:32:56.218Z,3.80
2023-03-13T17:35:25.465Z,2.90
2023-03-13T17:37:55.075Z,3.10
2023-03-13T17:40:26.756Z,2.87
2023-03-13T17:42:56.274Z,2.40
2023-03-13T17:45:25.307Z,3.30
2023-03-13T17:47:54.351Z,2.67
2023-03-13T17:50:27.010Z,2.50
2023-03-13T17:52:57.299Z,1.97
2023-03-13T17:55:25.617Z,9.37
2023-03-13T17:57:53.966Z,4.43
2023-03-13T18:00:26.414Z,8.30
2023-03-13T18:02:54.794Z,5.60
2023-03-13T18:05:23.505Z,4.10
2023-03-13T18:07:53.117Z,3.50
2023-03-13T18:10:25.347Z,3.10
2023-03-13T18:12:54.720Z,3.00
2023-03-13T18:15:25.332Z,5.10
2023-03-13T18:17:53.853Z,3.00
2023-03-13T18:20:25.157Z,2.60
2023-03-13T18:22:54.061Z,2.57
2023-03-13T18:25:23.675Z,2.40
2023-03-13T18:27:51.968Z,2.30
2023-03-13T18:30:23.588Z,2.23
2023-03-13T18:32:52.014Z,2.43
2023-03-13T18:35:20.680Z,5.27
2023-03-13T18:37:49.839Z,7.83
2023-03-13T18:40:20.568Z,4.77
2023-03-13T18:42:50.751Z,3.47
2023-03-13T18:45:21.739Z,5.70
2023-03-13T18:47:50.647Z,5.00
2023-03-13T18:50:26.356Z,6.47
2023-03-13T18:52:55.944Z,5.43
2023-03-13T18:55:25.251Z,3.90
2023-03-13T18:57:56.051Z,4.97
2023-03-13T19:00:26.573Z,3.70
2023-03-13T19:02:54.864Z,3.83
2023-03-13T19:05:23.346Z,2.87
2023-03-13T19:07:51.804Z,2.90
2023-03-13T19:10:25.111Z,3.23
2023-03-13T19:12:56.948Z,4.87
2023-03-13T19:15:28.883Z,4.20
2023-03-13T19:18:01.817Z,2.93
2023-03-13T19:20:31.290Z,2.90
2023-03-13T19:23:00.815Z,2.97
2023-03-13T19:25:29.445Z,2.60
2023-03-13T19:27:59.040Z,2.67
2023-03-13T19:30:28.309Z,3.73
2023-03-13T19:32:56.707Z,3.60
2023-03-13T19:35:25.077Z,3.80
2023-03-13T19:37:53.417Z,2.80
2023-03-13T19:40:24.417Z,3.17
2023-03-13T19:42:52.860Z,3.10
2023-03-13T19:45:23.115Z,2.73
2023-03-13T19:47:51.543Z,2.53
2023-03-13T19:50:22.879Z,2.83
2023-03-13T19:52:51.216Z,2.80
2023-03-13T19:55:19.669Z,2.77
2023-03-13T19:57:47.966Z,3.77
2023-03-13T20:00:23.162Z,5.57
2023-03-13T20:02:52.269Z,10.67
2023-03-13T20:05:20.686Z,7.20
2023-03-13T20:07:49.117Z,11.70
2023-03-13T20:10:17.903Z,8.67
2023-03-13T20:12:46.159Z,5.37
2023-03-13T20:15:14.536Z,4.47
2023-03-13T20:17:44.148Z,2.63
2023-03-13T20:20:13.788Z,2.33
2023-03-13T20:22:42.380Z,3.00
2023-03-13T20:25:11.627Z,2.20
2023-03-13T20:27:40.254Z,2.03
2023-03-13T20:30:10.637Z,1.90
2023-03-13T20:32:46.221Z,2.40
2023-03-13T20:35:26.877Z,2.70
2023-03-13T20:37:57.412Z,2.43
2023-03-13T20:40:25.749Z,2.67
2023-03-13T20:42:54.118Z,2.27
2023-03-13T20:45:22.397Z,2.80
2023-03-13T20:47:50.730Z,5.50
2023-03-13T20:50:19.826Z,5.40
2023-03-13T20:52:49.814Z,4.60
2023-03-13T20:55:18.803Z,4.17
2023-03-13T20:57:47.060Z,3.63
2023-03-13T21:00:16.200Z,3.70
2023-03-13T21:02:44.459Z,4.87
2023-03-13T21:05:12.681Z,9.03
2023-03-13T21:07:40.902Z,7.37
2023-03-13T21:10:12.715Z,9.20
2023-03-13T21:12:41.207Z,7.60
2023-03-13T21:15:11.204Z,7.57
2023-03-13T21:17:40.075Z,6.07
2023-03-13T21:20:11.871Z,5.77
2023-03-13T21:22:40.417Z,5.87
2023-03-13T21:25:11.817Z,5.03
2023-03-13T21:27:40.464Z,4.63
2023-03-13T21:30:14.098Z,4.23
2023-03-13T21:32:42.494Z,3.40
2023-03-13T21:35:11.959Z,3.83
2023-03-13T21:37:40.763Z,3.23
2023-03-13T21:40:12.624Z,3.10
2023-03-13T21:42:40.935Z,3.30
2023-03-13T21:45:11.490Z,4.67
2023-03-13T21:47:40.412Z,4.77
2023-03-13T21:50:11.228Z,3.90
2023-03-13T21:52:41.322Z,4.27
2023-03-13T21:55:13.928Z,4.53
2023-03-13T21:57:42.313Z,4.37
2023-03-13T22:00:14.056Z,4.33
2023-03-13T22:02:42.951Z,3.30
2023-03-13T22:05:11.534Z,3.87
2023-03-13T22:07:39.817Z,3.83
2023-03-13T22:10:09.023Z,3.47
2023-03-13T22:12:38.666Z,3.77
2023-03-13T22:15:09.062Z,5.47
2023-03-13T22:17:37.409Z,5.03
2023-03-13T22:20:07.566Z,5.07
2023-03-13T22:22:35.853Z,4.50
2023-03-13T22:25:04.544Z,4.17
2023-03-13T22:27:32.911Z,4.37
2023-03-13T22:30:02.581Z,3.73
2023-03-13T22:32:30.901Z,4.10
2023-03-13T22:34:59.242Z,3.20
2023-03-13T22:37:27.681Z,3.00
2023-03-13T22:39:56.432Z,2.63
2023-03-13T22:42:26.130Z,2.60
2023-03-13T22:44:55.655Z,2.47
2023-03-13T22:47:26.514Z,2.77
2023-03-13T22:49:54.867Z,4.80
2023-03-13T22:52:28.930Z,4.77
2023-03-13T22:54:57.439Z,3.00
2023-03-13T22:57:25.843Z,2.33
2023-03-13T22:59:54.165Z,2.00
2023-03-13T23:02:23.920Z,2.20
2023-03-13T23:04:52.370Z,2.20
2023-03-13T23:07:22.535Z,2.13
2023-03-13T23:09:50.874Z,2.10
2023-03-13T23:12:19.148Z,2.13
2023-03-13T23:14:47.360Z,2.10
2023-03-13T23:17:15.703Z,2.03
2023-03-13T23:19:45.416Z,1.90
2023-03-13T23:22:17.873Z,2.00
2023-03-13T23:24:46.442Z,2.20
2023-03-13T23:27:14.743Z,2.40
2023-03-13T23:29:42.988Z,2.50
2023-03-13T23:32:11.302Z,2.50
2023-03-13T23:34:39.567Z,2.47
2023-03-13T23:37:09.204Z,2.33
2023-03-13T23:39:37.465Z,2.63
2023-03-13T23:42:05.756Z,2.30
2023-03-13T23:44:34.017Z,2.57
2023-03-13T23:47:02.282Z,2.20
2023-03-13T23:49:31.912Z,2.33
2023-03-13T23:52:00.897Z,2.60
2023-03-13T23:54:30.574Z,2.50
2023-03-13T23:56:58.899Z,2.40
2023-03-13T23:59:27.331Z,2.60
